Time;durP1;ratioP1;P1;durP2;ratioP2;P2;SDS_P1;SDS_P2;PMS_P1;PMS_P2;Temp;Humidity;BMP_temperature;BMP_pressure;BME280_temperature;BME280_humidity;BME280_pressure;Samples;Min_cycle;Max_cycle;Signal;HPM_P1;HPM_P2
2022/11/18 00:02:18;;;;;;;0.70;0.70;;;;;;;11.81;100.00;99072.97;5045554;28;20691;-73
2022/11/18 00:04:44;;;;;;;1.30;1.30;;;;;;;10.60;100.00;98860.88;5010876;28;20290;-73
2022/11/18 00:07:11;;;;;;;0.60;0.60;;;;;;;11.73;100.00;99059.22;5046203;28;20230;-72
2022/11/18 00:09:38;;;;;;;0.50;0.50;;;;;;;11.94;100.00;99105.81;5046160;28;20218;-73
2022/11/18 00:14:50;;;;;;;0.60;0.60;;;;;;;11.98;100.00;99102.34;5029198;28;20282;-73
2022/11/18 00:17:17;;;;;;;0.70;0.70;;;;;;;11.75;100.00;99057.44;5046239;28;20261;-73
2022/11/18 00:19:44;;;;;;;1.55;1.55;;;;;;;11.89;100.00;99091.97;5045758;28;20836;-73
2022/11/18 00:22:13;;;;;;;0.50;0.50;;;;;;;11.98;100.00;99102.34;5046861;28;20206;-74
2022/11/18 00:24:40;;;;;;;0.70;0.70;;;;;;;11.97;100.00;99099.72;5045633;28;20204;-74
2022/11/18 00:27:07;;;;;;;0.60;0.60;;;;;;;11.90;100.00;99099.78;5048249;28;20215;-75
2022/11/18 00:29:33;;;;;;;0.70;0.70;;;;;;;11.95;100.00;99104.09;5046755;28;20200;-74
2022/11/18 00:32:02;;;;;;;1.27;1.25;;;;;;;11.95;100.00;99102.31;5046255;28;20207;-74
2022/11/18 00:34:28;;;;;;;0.70;0.70;;;;;;;11.89;100.00;99089.38;5046053;28;20219;-74
2022/11/18 00:36:55;;;;;;;0.60;0.60;;;;;;;11.92;100.00;99100.63;5044858;28;20196;-74
2022/11/18 00:39:22;;;;;;;0.60;0.60;;;;;;;12.00;100.00;99105.78;5045717;28;20195;-74
2022/11/18 00:44:34;;;;;;;0.70;0.70;;;;;;;12.02;100.00;99101.41;5047514;28;20248;-74
2022/11/18 00:47:02;;;;;;;0.70;0.70;;;;;;;11.79;100.00;99069.53;5045960;28;20223;-74
2022/11/18 00:49:29;;;;;;;0.45;0.45;;;;;;;11.74;100.00;99058.31;5045631;28;20584;-74
2022/11/18 00:51:56;;;;;;;0.50;0.50;;;;;;;11.83;100.00;99081.66;5046255;28;20196;-74
2022/11/18 00:54:23;;;;;;;0.50;0.50;;;;;;;11.88;100.00;99092.84;5045196;28;20199;-74
2022/11/18 00:56:49;;;;;;;0.50;0.50;;;;;;;11.97;100.00;99095.41;5046611;28;20276;-74
2022/11/18 00:59:16;;;;;;;0.60;0.60;;;;;;;11.89;100.00;99081.59;5045525;28;20204;-74
2022/11/18 01:01:43;;;;;;;0.70;0.70;;;;;;;11.88;100.00;99093.72;5044976;28;20203;-74
2022/11/18 01:04:11;;;;;;;0.52;0.52;;;;;;;11.93;100.00;99096.28;5046033;28;20203;-75
2022/11/18 01:06:38;;;;;;;0.70;0.70;;;;;;;11.69;100.00;99065.25;5008217;28;20199;-74
2022/11/18 01:09:05;;;;;;;0.70;0.70;;;;;;;11.81;100.00;99088.56;5043626;28;20211;-75
2022/11/18 01:14:16;;;;;;;0.70;0.70;;;;;;;11.55;100.00;99080.91;5044197;28;20909;-75
2022/11/18 01:16:49;;;;;;;0.70;0.70;;;;;;;11.31;100.00;99035.16;5044944;28;20199;-74
2022/11/18 01:19:18;;;;;;;0.60;0.60;;;;;;;11.39;100.00;99064.53;5011217;28;20286;-74
2022/11/18 01:21:44;;;;;;;0.75;0.75;;;;;;;11.25;100.00;99057.69;5045455;28;20203;-74
2022/11/18 01:24:11;;;;;;;0.60;0.60;;;;;;;11.04;100.00;99066.41;5008763;28;20196;-74
2022/11/18 01:26:38;;;;;;;0.50;0.50;;;;;;;11.04;100.00;99066.41;5045982;28;20203;-74
2022/11/18 01:29:05;;;;;;;0.70;0.70;;;;;;;11.04;100.00;99069.00;5046421;28;20218;-75
2022/11/18 01:31:31;;;;;;;0.65;0.65;;;;;;;10.94;100.00;99051.75;5025014;28;20196;-74
2022/11/18 01:33:58;;;;;;;0.60;0.60;;;;;;;10.53;100.00;98983.59;5009169;28;20635;-74
2022/11/18 01:36:27;;;;;;;1.15;1.15;;;;;;;11.08;100.00;99052.56;5044416;28;20672;-74
2022/11/18 01:38:55;;;;;;;0.60;0.60;;;;;;;11.02;100.00;99050.00;5043652;28;20206;-74
2022/11/18 01:41:24;;;;;;;0.70;0.70;;;;;;;11.06;100.00;99046.50;5041562;28;20210;-74
2022/11/18 01:43:54;;;;;;;0.60;0.60;;;;;;;11.01;100.00;99034.44;5025848;28;20813;-74
2022/11/18 01:46:22;;;;;;;0.70;0.70;;;;;;;10.97;100.00;99028.41;5046975;28;20260;-73
2022/11/18 01:48:52;;;;;;;0.70;0.70;;;;;;;10.88;100.00;99024.09;5044544;28;20219;-74
2022/11/18 01:51:25;;;;;;;0.60;0.60;;;;;;;11.00;100.00;99038.75;5043834;28;20597;-74
2022/11/18 01:53:58;;;;;;;0.68;0.68;;;;;;;11.01;100.00;99030.13;5043762;28;20649;-74
2022/11/18 01:56:31;;;;;;;0.70;0.70;;;;;;;11.03;100.00;99033.56;5044035;28;20208;-74
2022/11/18 01:59:02;;;;;;;0.70;0.70;;;;;;;10.93;100.00;99031.88;5042720;28;20203;-74
2022/11/18 02:01:29;;;;;;;0.60;0.60;;;;;;;10.99;100.00;99028.41;5045714;28;20274;-74
2022/11/18 02:03:56;;;;;;;0.60;0.60;;;;;;;11.06;100.00;99030.94;5043266;28;20321;-74
2022/11/18 02:06:22;;;;;;;0.70;0.70;;;;;;;11.16;100.00;99043.03;5043329;28;20196;-74
2022/11/18 02:08:51;;;;;;;0.60;0.60;;;;;;;11.00;100.00;99001.56;5043314;28;20230;-75
2022/11/18 02:14:08;;;;;;;0.70;0.70;;;;;;;11.34;100.00;99045.50;5043917;28;20253;-74
2022/11/18 02:16:57;;;;;;;0.60;0.60;;;;;;;11.30;100.00;99025.66;5044885;28;20258;-75
2022/11/18 02:19:49;;;;;;;0.60;0.60;;;;;;;11.45;100.00;99048.94;5045909;28;20207;-74
2022/11/18 02:22:32;;;;;;;0.70;0.70;;;;;;;11.32;100.00;99033.44;5027682;28;20195;-74
2022/11/18 02:25:07;;;;;;;0.70;0.70;;;;;;;11.42;100.00;99042.88;5028703;28;20192;-75
2022/11/18 02:28:09;;;;;;;0.50;0.50;;;;;;;11.42;100.00;99051.53;5027553;28;20234;-74
2022/11/18 02:30:45;;;;;;;0.60;0.60;;;;;;;11.24;100.00;99030.88;5008977;28;20251;-74
2022/11/18 02:33:18;;;;;;;0.70;0.70;;;;;;;10.81;100.00;98982.63;5019745;28;20667;-75
2022/11/18 02:35:51;;;;;;;0.60;0.60;;;;;;;11.18;100.00;99037.81;5022900;28;20684;-74
2022/11/18 02:38:27;;;;;;;0.80;0.80;;;;;;;11.02;100.00;99025.78;5021747;28;20211;-75
2022/11/18 02:40:58;;;;;;;0.70;0.70;;;;;;;11.06;100.00;99043.06;5038557;28;20203;-74
2022/11/18 02:43:30;;;;;;;0.70;0.70;;;;;;;11.04;100.00;99061.22;5046059;28;20195;-74
2022/11/18 02:46:03;;;;;;;0.60;0.60;;;;;;;10.88;100.00;99044.84;5011881;28;20211;-74
2022/11/18 02:48:33;;;;;;;0.70;0.70;;;;;;;10.89;100.00;99053.47;5049582;28;20628;-74
2022/11/18 02:51:03;;;;;;;0.70;0.70;;;;;;;10.83;100.00;99050.91;5047297;28;20203;-74
2022/11/18 02:53:32;;;;;;;1.07;1.07;;;;;;;10.80;100.00;99056.13;5047574;28;20199;-74
2022/11/18 02:56:01;;;;;;;0.67;0.67;;;;;;;9.93;100.00;98908.56;5047941;28;20191;-74
2022/11/18 02:58:27;;;;;;;0.70;0.70;;;;;;;10.45;100.00;99018.16;5047132;28;20261;-75
2022/11/18 03:00:55;;;;;;;0.60;0.60;;;;;;;10.65;100.00;99050.97;5047905;28;20195;-74
2022/11/18 03:03:27;;;;;;;0.77;0.77;;;;;;;10.76;100.00;99054.38;5046138;28;20231;-74
2022/11/18 03:06:04;;;;;;;0.60;0.60;;;;;;;10.83;100.00;99051.78;5045952;28;20598;-74
2022/11/18 03:08:45;;;;;;;0.60;0.60;;;;;;;10.88;100.00;99055.22;5047165;28;20280;-74
2022/11/18 03:11:17;;;;;;;0.60;0.60;;;;;;;10.86;100.00;99056.97;5047120;28;20195;-74
2022/11/18 03:13:59;;;;;;;0.73;0.73;;;;;;;10.94;100.00;99059.53;5046577;28;20192;-74
2022/11/18 03:16:32;;;;;;;0.70;0.70;;;;;;;10.85;100.00;99038.78;5028885;28;20211;-74
2022/11/18 03:19:09;;;;;;;0.70;0.70;;;;;;;11.02;100.00;99057.78;5047681;28;20199;-74
2022/11/18 03:21:41;;;;;;;0.50;0.50;;;;;;;11.01;100.00;99050.88;5034765;28;20203;-74
2022/11/18 03:24:14;;;;;;;0.60;0.60;;;;;;;11.05;100.00;99047.41;5047033;28;20208;-74
2022/11/18 03:26:45;;;;;;;0.88;0.88;;;;;;;11.06;100.00;99058.63;5046413;28;20805;-74
2022/11/18 03:29:18;;;;;;;0.57;0.57;;;;;;;10.83;100.00;99012.03;5047943;28;20699;-74
2022/11/18 03:31:48;;;;;;;0.70;0.70;;;;;;;11.11;100.00;99051.69;5048498;28;20200;-74
2022/11/18 03:34:20;;;;;;;0.50;0.50;;;;;;;11.08;100.00;99036.13;5045832;28;20204;-73
2022/11/18 03:36:52;;;;;;;0.75;0.75;;;;;;;11.18;100.00;99049.06;5046684;28;20207;-74
2022/11/18 03:39:21;;;;;;;0.80;0.80;;;;;;;10.89;100.00;99004.22;5047533;28;20211;-74
2022/11/18 03:41:51;;;;;;;0.70;0.70;;;;;;;11.16;100.00;99035.25;5046881;28;20192;-74
2022/11/18 03:44:23;;;;;;;0.60;0.60;;;;;;;11.28;100.00;99039.50;5014774;28;20192;-74
2022/11/18 03:46:55;;;;;;;0.90;0.90;;;;;;;11.35;100.00;99055.03;5047082;28;20207;-74
2022/11/18 03:49:37;;;;;;;0.60;0.60;;;;;;;11.39;100.00;99048.97;5046162;28;20701;-74
2022/11/18 03:52:14;;;;;;;0.70;0.70;;;;;;;11.36;100.00;99048.97;5046134;28;20207;-74
2022/11/18 03:54:45;;;;;;;0.50;0.50;;;;;;;11.28;100.00;99050.75;5044585;28;20699;-75
2022/11/18 03:57:17;;;;;;;0.60;0.60;;;;;;;11.20;100.00;99052.50;5046792;28;20187;-74
2022/11/18 03:59:47;;;;;;;0.70;0.70;;;;;;;11.17;100.00;99052.53;5047517;28;20199;-74
2022/11/18 04:02:17;;;;;;;0.70;0.70;;;;;;;11.03;100.00;99018.00;5047195;28;20243;-74
2022/11/18 04:04:48;;;;;;;0.50;0.50;;;;;;;11.08;100.00;99042.19;5048336;28;20203;-73
2022/11/18 04:07:23;;;;;;;0.73;0.73;;;;;;;11.02;100.00;99047.41;5045470;28;20208;-74
2022/11/18 04:09:56;;;;;;;0.60;0.60;;;;;;;11.04;100.00;99050.84;5045817;28;20643;-74
2022/11/18 04:12:27;;;;;;;0.65;0.65;;;;;;;9.98;100.00;98882.69;5045782;28;20694;-73
2022/11/18 04:14:54;;;;;;;0.60;0.60;;;;;;;10.91;100.00;99054.34;5046847;28;20195;-74
2022/11/18 04:17:23;;;;;;;0.70;0.70;;;;;;;10.89;100.00;99056.94;5046405;28;20207;-74
2022/11/18 04:19:51;;;;;;;0.70;0.70;;;;;;;10.91;100.00;99047.41;5047644;28;20559;-74
2022/11/18 04:22:18;;;;;;;0.70;0.70;;;;;;;10.90;100.00;99024.09;5045835;28;20198;-74
2022/11/18 04:24:45;;;;;;;0.60;0.60;;;;;;;11.14;100.00;99049.94;5045816;28;20281;-74
2022/11/18 04:27:12;;;;;;;0.50;0.50;;;;;;;11.10;100.00;99056.00;5046565;28;20208;-73
2022/11/18 04:29:39;;;;;;;0.60;0.60;;;;;;;11.04;100.00;99058.63;5048099;28;20231;-74
2022/11/18 04:32:06;;;;;;;0.60;0.60;;;;;;;11.17;100.00;99052.53;5047935;28;20200;-73
2022/11/18 04:34:33;;;;;;;0.55;0.55;;;;;;;11.18;100.00;99053.38;5045766;28;20207;-74
2022/11/18 04:37:01;;;;;;;0.60;0.60;;;;;;;11.13;100.00;99049.97;5045451;28;20265;-74
2022/11/18 04:39:28;;;;;;;0.60;0.60;;;;;;;11.13;100.00;99044.78;5045695;28;20206;-74
2022/11/18 04:41:57;;;;;;;0.60;0.60;;;;;;;10.97;100.00;99032.72;5045125;28;20642;-74
2022/11/18 04:44:26;;;;;;;0.70;0.70;;;;;;;10.70;100.00;99007.75;5047584;28;20591;-74
2022/11/18 04:46:54;;;;;;;0.90;0.90;;;;;;;10.63;100.00;99037.16;5046031;28;20698;-74
2022/11/18 04:49:22;;;;;;;1.53;1.43;;;;;;;10.43;100.00;99035.44;5045662;28;20230;-73
2022/11/18 04:51:49;;;;;;;0.60;0.60;;;;;;;10.35;100.00;99028.53;5045699;28;20602;-74
2022/11/18 04:54:18;;;;;;;0.80;0.80;;;;;;;10.27;100.00;99033.72;5044722;28;20195;-73
2022/11/18 04:56:46;;;;;;;0.90;0.90;;;;;;;10.25;100.00;99024.22;5044439;28;20214;-69
2022/11/18 04:59:13;;;;;;;0.50;0.50;;;;;;;10.23;100.00;99026.84;5045674;28;20195;-74
2022/11/18 05:01:40;;;;;;;0.60;0.60;;;;;;;10.07;100.00;99004.34;5045499;28;20206;-73
2022/11/18 05:04:08;;;;;;;0.60;0.60;;;;;;;10.17;100.00;99023.38;5044738;28;20230;-74
2022/11/18 05:06:35;;;;;;;0.60;0.60;;;;;;;10.16;100.00;99025.13;5044523;28;20219;-74
2022/11/18 05:09:01;;;;;;;0.50;0.50;;;;;;;10.21;100.00;99015.59;5044302;28;20741;-74
2022/11/18 05:14:14;;;;;;;0.57;0.57;;;;;;;10.27;100.00;99025.94;5044962;28;20260;-74
2022/11/18 05:16:44;;;;;;;0.70;0.70;;;;;;;10.32;100.00;99020.75;5044099;28;20223;-74
2022/11/18 05:19:11;;;;;;;0.50;0.50;;;;;;;10.35;100.00;99013.84;5014835;28;20204;-72
2022/11/18 05:21:38;;;;;;;0.70;0.70;;;;;;;10.34;100.00;99030.28;5044796;28;20607;-73
2022/11/18 05:24:05;;;;;;;1.23;1.23;;;;;;;10.61;100.00;99015.53;5044464;28;20207;-75
2022/11/18 05:26:34;;;;;;;0.70;0.70;;;;;;;10.51;100.00;99021.63;5009562;28;20226;-73
2022/11/18 05:29:00;;;;;;;0.57;0.57;;;;;;;10.32;100.00;99010.41;5045996;28;20687;-74
2022/11/18 05:31:28;;;;;;;0.60;0.60;;;;;;;10.45;100.00;99027.69;5043775;28;20207;-72
2022/11/18 05:33:54;;;;;;;0.60;0.60;;;;;;;10.24;100.00;98992.28;5009030;28;20200;-72
2022/11/18 05:36:22;;;;;;;0.70;0.70;;;;;;;10.30;100.00;99018.19;5044794;28;20222;-73
2022/11/18 05:38:49;;;;;;;0.80;0.80;;;;;;;10.06;100.00;98999.19;5044080;28;20262;-72
2022/11/18 05:43:59;;;;;;;0.70;0.70;;;;;;;10.12;100.00;99013.00;5026903;28;20199;-72
2022/11/18 05:46:27;;;;;;;0.80;0.80;;;;;;;10.27;100.00;99023.34;5044066;28;20200;-71
2022/11/18 05:48:54;;;;;;;0.70;0.70;;;;;;;10.53;100.00;99014.69;5043296;28;20589;-72
2022/11/18 05:51:21;;;;;;;0.70;0.70;;;;;;;10.50;100.00;99006.91;5042910;28;20664;-72
2022/11/18 05:53:48;;;;;;;0.70;0.70;;;;;;;10.52;100.00;99010.38;5043828;28;20265;-74
2022/11/18 05:56:20;;;;;;;0.70;0.70;;;;;;;10.47;100.00;98999.16;5044155;28;20702;-73
2022/11/18 05:58:47;;;;;;;0.90;0.90;;;;;;;10.60;100.00;99018.97;5025546;28;20207;-75
2022/11/18 06:01:20;;;;;;;4.40;1.42;;;;;;;10.83;100.00;99022.41;5045941;28;20605;-74
2022/11/18 06:03:47;;;;;;;4.28;1.10;;;;;;;10.80;100.00;99030.19;5043759;28;20275;-74
2022/11/18 06:06:21;;;;;;;2.30;2.20;;;;;;;10.91;100.00;99036.22;5044099;28;20730;-73
2022/11/18 06:08:55;;;;;;;0.70;0.70;;;;;;;10.62;100.00;99030.22;5045395;28;20223;-73
2022/11/18 06:11:22;;;;;;;0.52;0.52;;;;;;;10.88;100.00;99018.03;5043689;28;20218;-73
2022/11/18 06:13:55;;;;;;;0.67;0.67;;;;;;;10.86;100.00;99020.66;5045432;28;20683;-73
2022/11/18 06:16:28;;;;;;;0.63;0.63;;;;;;;10.94;100.00;99033.59;5043668;28;20214;-73
2022/11/18 06:18:54;;;;;;;0.70;0.70;;;;;;;10.49;100.00;98935.25;5042037;28;20217;-74
2022/11/18 06:21:22;;;;;;;5.57;4.22;;;;;;;10.71;100.00;99045.75;5044775;28;20207;-73
2022/11/18 06:23:50;;;;;;;1.67;1.67;;;;;;;10.21;100.00;99053.59;5042100;28;20212;-72
2022/11/18 06:26:19;;;;;;;0.67;0.67;;;;;;;9.80;100.00;99010.41;5046000;28;20238;-73
2022/11/18 06:28:48;;;;;;;0.70;0.70;;;;;;;9.84;100.00;99022.50;5045508;28;20296;-76
2022/11/18 06:31:16;;;;;;;0.70;0.70;;;;;;;10.30;100.00;99041.50;5039742;28;20199;-75
2022/11/18 06:33:44;;;;;;;0.70;0.70;;;;;;;10.39;100.00;99038.91;5042932;28;20259;-74
2022/11/18 06:36:10;;;;;;;0.83;0.83;;;;;;;10.24;100.00;99032.84;5043471;28;20273;-73
2022/11/18 06:38:37;;;;;;;0.57;0.57;;;;;;;10.30;100.00;99027.69;5040177;28;20306;-73
2022/11/18 06:41:04;;;;;;;0.70;0.70;;;;;;;10.53;100.00;99040.59;5041757;28;20223;-74
2022/11/18 06:43:40;;;;;;;0.63;0.63;;;;;;;10.54;100.00;99031.97;5043014;28;20222;-75
2022/11/18 06:48:55;;;;;;;0.60;0.60;;;;;;;10.45;100.00;98966.31;5041439;28;20290;-74
2022/11/18 06:51:22;;;;;;;0.60;0.60;;;;;;;11.06;100.00;99049.09;5043667;28;20192;-74
2022/11/18 06:53:49;;;;;;;2.00;1.47;;;;;;;10.80;100.00;99058.72;5046467;28;20211;-72
2022/11/18 06:56:17;;;;;;;0.90;0.90;;;;;;;10.55;100.00;99033.69;5008297;28;20920;-74
2022/11/18 06:58:44;;;;;;;0.60;0.60;;;;;;;10.74;100.00;99069.06;5042684;28;20215;-73
2022/11/18 07:01:12;;;;;;;1.88;1.77;;;;;;;10.47;100.00;99087.25;5045019;28;20612;-75
2022/11/18 07:03:39;;;;;;;0.60;0.60;;;;;;;10.37;100.00;99082.09;5042569;28;20239;-75
2022/11/18 07:06:08;;;;;;;0.60;0.60;;;;;;;10.27;100.00;99057.03;5042911;28;20207;-73
2022/11/18 07:08:36;;;;;;;0.67;0.67;;;;;;;10.62;100.00;99061.34;5022842;28;20600;-74
2022/11/18 07:11:05;;;;;;;0.60;0.60;;;;;;;10.59;100.00;99033.69;5014432;28;20231;-73
2022/11/18 07:13:32;;;;;;;0.90;0.90;;;;;;;10.80;100.00;99066.50;5042064;28;20293;-73
2022/11/18 07:16:04;;;;;;;0.60;0.60;;;;;;;10.86;100.00;99056.97;5042400;28;20686;-74
2022/11/18 07:18:32;;;;;;;0.60;0.60;;;;;;;10.88;100.00;99043.97;5043828;28;20682;-74
2022/11/18 07:21:02;;;;;;;0.50;0.50;;;;;;;11.08;100.00;99047.38;5044256;28;20668;-74
2022/11/18 07:23:31;;;;;;;0.50;0.50;;;;;;;11.13;100.00;99053.38;5042565;28;20285;-74
2022/11/18 07:25:58;;;;;;;0.63;0.63;;;;;;;10.97;100.00;99005.06;5042998;28;20210;-74
2022/11/18 07:28:25;;;;;;;0.70;0.70;;;;;;;11.05;100.00;99038.75;5043540;28;20210;-74
2022/11/18 07:30:52;;;;;;;0.60;0.60;;;;;;;10.87;100.00;99024.97;5048132;28;20198;-74
2022/11/18 07:33:19;;;;;;;0.60;0.60;;;;;;;10.95;100.00;99036.16;5050051;28;20218;-74
2022/11/18 07:35:46;;;;;;;0.60;0.60;;;;;;;11.01;100.00;99035.31;5047643;28;20215;-74
2022/11/18 07:38:12;;;;;;;0.70;0.70;;;;;;;11.12;100.00;99032.66;5046716;28;20219;-74
2022/11/18 07:40:40;;;;;;;0.70;0.70;;;;;;;10.84;100.00;99018.94;5046404;28;20203;-73
2022/11/18 07:43:07;;;;;;;0.63;0.63;;;;;;;10.87;100.00;99044.84;5046373;28;20206;-74
2022/11/18 07:45:34;;;;;;;0.60;0.60;;;;;;;10.94;100.00;99042.25;5047363;28;20220;-73
2022/11/18 07:48:01;;;;;;;0.70;0.70;;;;;;;11.06;100.00;99043.91;5048985;28;20223;-73
2022/11/18 07:50:28;;;;;;;0.60;0.60;;;;;;;10.74;100.00;98958.47;5048327;28;20234;-73
2022/11/18 07:52:56;;;;;;;0.65;0.65;;;;;;;11.44;100.00;99047.22;5046995;28;20203;-73
2022/11/18 07:55:22;;;;;;;0.52;0.52;;;;;;;11.45;100.00;99043.72;5046667;28;20200;-74
2022/11/18 07:57:51;;;;;;;0.60;0.60;;;;;;;11.53;100.00;99042.81;5046900;28;20249;-73
2022/11/18 08:00:18;;;;;;;0.70;0.70;;;;;;;11.59;100.00;99045.41;5048650;28;20589;-73
2022/11/18 08:02:45;;;;;;;0.50;0.50;;;;;;;11.69;100.00;99052.28;5028771;28;20235;-73
2022/11/18 08:05:12;;;;;;;0.80;0.80;;;;;;;11.55;100.00;99043.69;5045812;28;20223;-73
2022/11/18 08:07:39;;;;;;;0.70;0.70;;;;;;;11.59;100.00;99061.00;5046161;28;20297;-73
2022/11/18 08:10:06;;;;;;;0.50;0.50;;;;;;;11.53;100.00;99029.84;5046422;28;20215;-74
2022/11/18 08:12:33;;;;;;;0.85;0.85;;;;;;;11.71;100.00;99060.94;5046083;28;20207;-74
2022/11/18 08:15:01;;;;;;;0.60;0.60;;;;;;;11.46;100.00;99049.78;5012361;28;20568;-74
2022/11/18 08:17:28;;;;;;;0.73;0.73;;;;;;;11.49;100.00;99060.16;5045420;28;20212;-74
2022/11/18 08:19:55;;;;;;;0.60;0.60;;;;;;;11.39;100.00;99059.34;5046722;28;20696;-73
2022/11/18 08:22:21;;;;;;;0.65;0.65;;;;;;;11.42;100.00;99054.13;5051975;28;20207;-73
2022/11/18 08:24:48;;;;;;;0.60;0.60;;;;;;;11.43;100.00;99045.50;5045966;28;20196;-73
2022/11/18 08:27:15;;;;;;;1.58;1.58;;;;;;;11.46;100.00;99039.41;5047015;28;20188;-73
2022/11/18 08:29:42;;;;;;;0.60;0.60;;;;;;;11.65;100.00;99040.16;5049459;28;20223;-73
2022/11/18 08:32:10;;;;;;;1.15;1.15;;;;;;;11.76;100.00;99035.81;5051923;28;20194;-73
2022/11/18 08:34:37;;;;;;;0.70;0.70;;;;;;;11.73;100.00;99013.34;5051630;28;20218;-72
2022/11/18 08:37:03;;;;;;;1.08;1.08;;;;;;;11.86;100.00;99014.09;5051903;28;20200;-71
2022/11/18 08:39:30;;;;;;;0.60;0.60;;;;;;;12.09;100.00;99022.59;5052288;28;20207;-73
2022/11/18 08:41:58;;;;;;;0.57;0.57;;;;;;;12.09;100.00;98986.22;5046459;28;20199;-73
2022/11/18 08:44:25;;;;;;;0.60;0.60;;;;;;;12.30;100.00;99008.53;5043585;28;20722;-73
2022/11/18 08:46:52;;;;;;;0.85;0.85;;;;;;;12.60;100.00;99022.97;5042415;28;20230;-74
2022/11/18 08:49:20;;;;;;;0.80;0.80;;;;;;;12.53;100.00;99029.09;5042934;28;20235;-75
2022/11/18 08:51:47;;;;;;;0.60;0.60;;;;;;;12.40;100.00;98995.44;5047876;28;20196;-72
2022/11/18 08:54:13;;;;;;;0.60;0.60;;;;;;;12.64;100.00;99016.84;5016426;28;20204;-72
2022/11/18 08:56:40;;;;;;;0.60;0.60;;;;;;;12.62;100.00;99005.63;5013010;28;20266;-73
2022/11/18 08:59:08;;;;;;;1.23;1.23;;;;;;;12.78;100.00;99005.44;5014963;28;20204;-73
2022/11/18 09:01:36;;;;;;;1.60;1.50;;;;;;;12.83;100.00;99000.19;5043241;28;20199;-73
2022/11/18 09:04:03;;;;;;;0.60;0.60;;;;;;;12.68;100.00;98962.19;5051497;28;20231;-73
2022/11/18 09:06:31;;;;;;;1.23;1.23;;;;;;;13.09;100.00;99005.94;5050764;28;20200;-71
2022/11/18 09:08:58;;;;;;;0.60;0.60;;;;;;;13.05;100.00;99006.00;5032258;28;20303;-71
2022/11/18 09:11:26;;;;;;;0.50;0.50;;;;;;;12.96;100.00;98993.94;5050502;28;20204;-73
2022/11/18 09:13:56;;;;;;;1.23;1.20;;;;;;;13.11;100.00;98982.53;5051642;28;20746;-74
2022/11/18 09:16:23;;;;;;;0.60;0.60;;;;;;;13.16;100.00;98986.78;5050758;28;20195;-73
2022/11/18 09:18:50;;;;;;;0.60;0.60;;;;;;;13.29;100.00;98977.94;5051200;28;20208;-75
2022/11/18 09:21:17;;;;;;;0.70;0.70;;;;;;;13.50;100.00;98983.72;5050382;28;20206;-74
2022/11/18 09:23:46;;;;;;;0.50;0.50;;;;;;;13.37;100.00;98963.09;5051419;28;20196;-74
2022/11/18 09:26:14;;;;;;;0.70;0.70;;;;;;;13.47;100.00;98970.75;5043531;28;20657;-74
2022/11/18 09:28:41;;;;;;;0.60;0.60;;;;;;;13.32;100.00;98931.03;5051249;28;20222;-75
2022/11/18 09:31:11;;;;;;;0.60;0.60;;;;;;;13.70;100.00;98955.63;5050839;28;20227;-75
2022/11/18 09:33:39;;;;;;;0.60;0.60;;;;;;;14.08;100.00;98961.09;5049104;28;20621;-75
2022/11/18 09:36:12;;;;;;;0.90;0.90;;;;;;;13.89;100.00;98897.13;5052114;28;20206;-75
2022/11/18 09:38:40;;;;;;;1.40;1.40;;;;;;;14.20;100.00;98928.72;5050879;28;20203;-74
2022/11/18 09:41:22;;;;;;;0.60;0.60;;;;;;;14.35;100.00;98950.19;5050298;28;20583;-75
2022/11/18 09:44:00;;;;;;;0.77;0.77;;;;;;;14.43;100.00;98912.69;5050447;28;20222;-75
2022/11/18 09:46:34;;;;;;;0.60;0.60;;;;;;;14.89;100.00;98953.50;5051492;28;20207;-75
2022/11/18 09:49:15;;;;;;;0.50;0.50;;;;;;;14.87;100.00;98917.88;5032245;28;20199;-74
2022/11/18 09:51:44;;;;;;;0.50;0.50;;;;;;;15.14;100.00;98946.00;5050276;28;20218;-74
2022/11/18 09:54:19;;;;;;;0.70;0.70;;;;;;;15.18;100.00;98929.38;5050436;28;20207;-76
2022/11/18 09:56:47;;;;;;;1.40;1.40;;;;;;;15.17;100.00;98896.31;5033255;28;20219;-74
2022/11/18 09:59:17;;;;;;;0.93;0.93;;;;;;;15.51;100.00;98890.34;4997978;28;20299;-73
2022/11/18 10:01:45;;;;;;;0.50;0.50;;;;;;;15.96;100.00;98910.13;5049639;28;20199;-74
2022/11/18 10:04:16;;;;;;;0.50;0.50;;;;;;;15.87;100.00;98908.59;5049611;28;20223;-73
2022/11/18 10:06:55;;;;;;;0.50;0.50;;;;;;;15.88;100.00;98893.75;5050115;28;20709;-77
2022/11/18 10:09:37;;;;;;;0.60;0.60;;;;;;;15.71;100.00;98891.59;5049043;28;20245;-75
2022/11/18 10:12:17;;;;;;;0.50;0.50;;;;;;;15.78;100.00;98893.16;5034202;28;20645;-76
2022/11/18 10:15:00;;;;;;;0.43;0.43;;;;;;;16.05;100.00;98888.94;5047503;28;20274;-74
2022/11/18 10:17:49;;;;;;;0.50;0.50;;;;;;;15.99;100.00;98880.41;5047485;28;20192;-76
2022/11/18 10:20:30;;;;;;;0.65;0.65;;;;;;;15.82;100.00;98842.53;5048877;28;20199;-74
2022/11/18 10:23:02;;;;;;;0.95;0.95;;;;;;;16.25;100.00;98873.63;5055592;28;20206;-77
2022/11/18 10:25:28;;;;;;;0.57;0.57;;;;;;;16.40;100.00;98859.25;5057515;28;20583;-75
2022/11/18 10:28:13;;;;;;;0.80;0.80;;;;;;;16.22;100.00;98849.28;5055682;28;20203;-73
2022/11/18 10:30:40;;;;;;;0.50;0.50;;;;;;;16.52;100.00;98868.50;5043708;28;20235;-75
2022/11/18 10:33:23;;;;;;;0.50;0.50;;;;;;;16.88;100.00;98845.66;5049163;28;20203;-81
2022/11/18 10:35:51;;;;;;;1.05;1.05;;;;;;;17.01;100.00;98852.25;5056621;28;20215;-74
2022/11/18 10:38:20;;;;;;;0.60;0.60;;;;;;;16.77;100.00;98854.69;5056421;28;20199;-75
2022/11/18 10:40:57;;;;;;;0.60;0.60;;;;;;;16.74;100.00;98854.78;5055669;28;20198;-77
2022/11/18 10:43:50;;;;;;;2.55;1.30;;;;;;;16.98;100.00;98850.56;5052546;28;20195;-80
2022/11/18 10:46:26;;;;;;;0.50;0.50;;;;;;;16.94;100.00;98846.34;5054030;28;20719;-77
2022/11/18 10:49:14;;;;;;;0.70;0.70;;;;;;;16.94;100.00;98830.66;5050258;28;20226;-75
2022/11/18 10:51:42;;;;;;;0.50;0.50;;;;;;;16.97;100.00;98822.69;5049865;28;20203;-75
2022/11/18 10:54:15;;;;;;;0.50;0.50;;;;;;;17.12;100.00;98824.81;5049892;28;20199;-74
2022/11/18 10:56:48;;;;;;;0.40;0.40;;;;;;;17.05;100.00;98818.03;5050144;28;20203;-75
2022/11/18 10:59:25;;;;;;;0.90;0.90;;;;;;;17.07;100.00;98811.03;5049662;28;20605;-76
2022/11/18 11:02:01;;;;;;;0.60;0.60;;;;;;;17.18;100.00;98814.16;5049980;28;20230;-74
2022/11/18 11:04:29;;;;;;;0.50;0.50;;;;;;;17.22;100.00;98818.41;5030113;28;20667;-75
2022/11/18 11:06:58;;;;;;;0.50;0.50;;;;;;;17.32;100.00;98822.44;5037214;28;20196;-73
2022/11/18 11:09:29;;;;;;;0.50;0.50;;;;;;;17.44;100.00;98789.75;5052726;28;20229;-74
2022/11/18 11:12:02;;;;;;;0.65;0.65;;;;;;;17.74;100.00;98811.44;5053628;28;20210;-75
2022/11/18 11:14:36;;;;;;;0.60;0.60;;;;;;;17.91;100.00;98824.81;5052703;28;20279;-74
2022/11/18 11:17:09;;;;;;;0.47;0.47;;;;;;;17.77;100.00;98819.19;5050766;28;20207;-74
2022/11/18 11:19:43;;;;;;;0.57;0.57;;;;;;;17.76;100.00;98818.34;5053458;28;20227;-75
2022/11/18 11:22:13;;;;;;;0.60;0.60;;;;;;;17.58;100.00;98791.91;5056377;28;20191;-75
2022/11/18 11:24:41;;;;;;;0.50;0.50;;;;;;;17.62;100.00;98810.09;5060645;28;20236;-75
2022/11/18 11:27:21;;;;;;;1.48;1.45;;;;;;;17.40;100.00;98779.41;5062076;28;20206;-75
2022/11/18 11:30:04;;;;;;;0.50;0.50;;;;;;;17.60;100.00;98805.81;5058160;28;20223;-75
2022/11/18 11:32:43;;;;;;;0.63;0.63;;;;;;;17.50;100.00;98789.53;5033400;28;20200;-75
2022/11/18 11:35:17;;;;;;;0.93;0.93;;;;;;;17.68;100.00;98801.19;5046490;28;20191;-76
2022/11/18 11:37:53;;;;;;;0.50;0.50;;;;;;;17.91;100.00;98806.47;5053171;28;20218;-76
2022/11/18 11:40:29;;;;;;;0.77;0.77;;;;;;;17.94;100.00;98809.00;5053495;28;20294;-76
2022/11/18 11:43:07;;;;;;;0.57;0.57;;;;;;;17.91;100.00;98805.63;5050436;28;20347;-76
2022/11/18 11:45:47;;;;;;;0.50;0.50;;;;;;;17.57;100.00;98798.06;5045463;28;20210;-76
2022/11/18 11:48:36;;;;;;;0.73;0.73;;;;;;;17.64;100.00;98803.03;5010065;28;20596;-76
2022/11/18 11:51:11;;;;;;;0.60;0.60;;;;;;;17.48;100.00;98782.63;5030967;28;20621;-76
2022/11/18 11:54:13;;;;;;;0.60;0.60;;;;;;;17.53;100.00;98799.91;5053032;28;20206;-76
2022/11/18 11:56:46;;;;;;;0.50;0.50;;;;;;;17.32;100.00;98783.13;5043184;28;20203;-77
2022/11/18 11:59:29;;;;;;;0.60;0.60;;;;;;;17.44;100.00;98788.88;5033337;28;20207;-77